Time;durP1;ratioP1;P1;durP2;ratioP2;P2;SDS_P1;SDS_P2;PMS_P1;PMS_P2;Temp;Humidity;BMP_temperature;BMP_pressure;BME280_temperature;BME280_humidity;BME280_pressure;Samples;Min_cycle;Max_cycle;Signal;HPM_P1;HPM_P2
2024/01/21 00:01:36;;;;;;;0.00;0.00;;;2.20;75.20;;;;;;5047435;28;20282;-37
2024/01/21 00:04:03;;;;;;;0.00;0.00;;;2.20;75.20;;;;;;5046902;28;20192;-35
2024/01/21 00:06:33;;;;;;;0.00;0.00;;;2.20;75.20;;;;;;5045684;28;20196;-35
2024/01/21 00:09:02;;;;;;;0.00;0.00;;;2.30;75.30;;;;;;5046967;28;20196;-35
2024/01/21 00:11:32;;;;;;;0.00;0.00;;;2.30;75.10;;;;;;5029413;28;20689;-35
2024/01/21 00:13:59;;;;;;;0.00;0.00;;;2.30;75.10;;;;;;5045029;28;20266;-35
2024/01/21 00:16:34;;;;;;;0.00;0.00;;;2.30;75.10;;;;;;5044021;28;20261;-37
2024/01/21 00:19:03;;;;;;;0.00;0.00;;;2.30;75.10;;;;;;5046912;28;20203;-35
2024/01/21 00:21:33;;;;;;;0.00;0.00;;;2.30;75.20;;;;;;5038520;28;20656;-35
2024/01/21 00:24:00;;;;;;;0.00;0.00;;;2.30;75.10;;;;;;5025225;28;20205;-35
2024/01/21 00:26:28;;;;;;;0.00;0.00;;;2.30;75.10;;;;;;5027220;28;20402;-36
2024/01/21 00:29:00;;;;;;;0.00;0.00;;;2.30;75.10;;;;;;5027744;28;20199;-35
2024/01/21 00:31:28;;;;;;;0.00;0.00;;;2.40;76.00;;;;;;5027763;28;20324;-36
2024/01/21 00:33:55;;;;;;;0.00;0.00;;;2.40;75.30;;;;;;5026535;28;20244;-35
2024/01/21 00:36:27;;;;;;;0.00;0.00;;;2.40;75.30;;;;;;5025830;28;20208;-36
2024/01/21 00:38:54;;;;;;;0.00;0.00;;;2.40;75.30;;;;;;5009524;28;20280;-35
2024/01/21 00:41:26;;;;;;;0.00;0.00;;;2.50;75.30;;;;;;5025806;28;20757;-35
2024/01/21 00:43:53;;;;;;;0.00;0.00;;;2.50;75.40;;;;;;5025968;28;20193;-36
2024/01/21 00:46:25;;;;;;;0.00;0.00;;;2.50;75.30;;;;;;5026705;28;20224;-36
2024/01/21 00:48:52;;;;;;;0.00;0.00;;;2.50;75.30;;;;;;5025573;28;20204;-35
2024/01/21 00:51:21;;;;;;;0.00;0.00;;;2.60;75.30;;;;;;5024750;28;20219;-34
2024/01/21 00:53:49;;;;;;;0.00;0.00;;;2.60;75.30;;;;;;5026942;28;20244;-35
2024/01/21 00:56:16;;;;;;;0.00;0.00;;;2.60;75.30;;;;;;5027471;28;20213;-37
2024/01/21 00:58:45;;;;;;;0.00;0.00;;;2.70;75.40;;;;;;5049441;28;20744;-35
2024/01/21 01:01:15;;;;;;;0.00;0.00;;;2.70;75.30;;;;;;5049558;28;20771;-34
2024/01/21 01:03:44;;;;;;;0.00;0.00;;;2.70;75.30;;;;;;5028463;28;20685;-37
2024/01/21 01:06:13;;;;;;;0.00;0.00;;;2.70;75.30;;;;;;5047569;28;20223;-34
2024/01/21 01:08:46;;;;;;;0.00;0.00;;;2.70;75.30;;;;;;5047095;28;20208;-35
2024/01/21 01:11:13;;;;;;;0.00;0.00;;;2.80;75.30;;;;;;5049096;28;20216;-35
2024/01/21 01:13:41;;;;;;;0.00;0.00;;;2.80;75.30;;;;;;5050142;28;20283;-35
2024/01/21 01:16:10;;;;;;;0.00;0.00;;;2.80;75.20;;;;;;5049261;28;20204;-35
2024/01/21 01:18:40;;;;;;;0.00;0.00;;;2.80;75.20;;;;;;5048510;28;20266;-35
2024/01/21 01:21:15;;;;;;;0.00;0.00;;;2.90;75.10;;;;;;5044341;28;20222;-35
2024/01/21 01:23:42;;;;;;;0.00;0.00;;;2.90;75.20;;;;;;5049510;28;20266;-37
2024/01/21 01:26:14;;;;;;;0.00;0.00;;;2.90;75.20;;;;;;5046850;28;20204;-35
2024/01/21 01:28:44;;;;;;;0.00;0.00;;;2.90;75.20;;;;;;5046484;28;20216;-35
2024/01/21 01:31:17;;;;;;;0.00;0.00;;;2.90;76.00;;;;;;5048479;28;20572;-35
2024/01/21 01:33:48;;;;;;;0.00;0.00;;;3.00;75.20;;;;;;5048406;28;20254;-35
2024/01/21 01:36:15;;;;;;;0.00;0.00;;;3.00;75.30;;;;;;5047019;28;20499;-34
2024/01/21 01:38:42;;;;;;;0.00;0.00;;;3.00;75.30;;;;;;5034854;28;20235;-35
2024/01/21 01:41:15;;;;;;;0.00;0.00;;;3.00;75.30;;;;;;5026580;28;20225;-36
2024/01/21 01:43:45;;;;;;;0.00;0.00;;;3.00;75.20;;;;;;5010611;28;20818;-34
2024/01/21 01:46:13;;;;;;;0.00;0.00;;;3.10;75.20;;;;;;5027725;28;20271;-34
2024/01/21 01:48:46;;;;;;;0.00;0.00;;;3.10;75.40;;;;;;5026016;28;20262;-34
2024/01/21 01:51:16;;;;;;;0.00;0.00;;;3.10;75.30;;;;;;5026232;28;20292;-35
2024/01/21 01:53:44;;;;;;;0.00;0.00;;;3.10;75.20;;;;;;5027550;28;20208;-36
2024/01/21 01:56:11;;;;;;;0.00;0.00;;;3.20;75.30;;;;;;5027064;28;20209;-35
2024/01/21 01:58:43;;;;;;;0.00;0.00;;;3.20;75.30;;;;;;5033353;28;20212;-35
2024/01/21 02:01:13;;;;;;;0.00;0.00;;;3.20;75.20;;;;;;5047493;28;20216;-34
2024/01/21 02:03:42;;;;;;;0.00;0.00;;;3.20;75.20;;;;;;5033329;28;20263;-35
2024/01/21 02:06:11;;;;;;;0.00;0.00;;;3.20;75.20;;;;;;5047129;28;20204;-36
2024/01/21 02:08:38;;;;;;;0.00;0.00;;;3.30;75.20;;;;;;5028488;28;20216;-35
2024/01/21 02:11:05;;;;;;;0.00;0.00;;;3.30;75.20;;;;;;5041400;28;20208;-35
2024/01/21 02:13:33;;;;;;;0.00;0.00;;;3.30;75.20;;;;;;5047818;28;20281;-37
2024/01/21 02:16:00;;;;;;;0.00;0.00;;;3.30;75.10;;;;;;5035849;28;20228;-35
2024/01/21 02:18:28;;;;;;;0.00;0.00;;;3.30;75.20;;;;;;5045167;28;20200;-35
2024/01/21 02:20:55;;;;;;;0.00;0.00;;;3.30;75.20;;;;;;5043354;28;20201;-35
2024/01/21 02:23:25;;;;;;;0.00;0.00;;;3.30;75.10;;;;;;5045241;28;20204;-36
2024/01/21 02:25:52;;;;;;;0.00;0.00;;;3.30;75.00;;;;;;5046700;28;20850;-37
2024/01/21 02:28:21;;;;;;;0.00;0.00;;;3.40;75.10;;;;;;5047253;28;20576;-35
2024/01/21 02:30:51;;;;;;;0.00;0.00;;;3.40;75.10;;;;;;5045881;28;20279;-34
2024/01/21 02:33:20;;;;;;;0.00;0.00;;;3.40;75.00;;;;;;5047096;28;20322;-35
2024/01/21 02:35:50;;;;;;;0.00;0.00;;;3.40;75.00;;;;;;5046927;28;20246;-35
2024/01/21 02:38:17;;;;;;;0.00;0.00;;;3.40;75.00;;;;;;5045050;28;20203;-35
2024/01/21 02:40:45;;;;;;;0.00;0.00;;;3.40;75.00;;;;;;5045130;28;20200;-36
2024/01/21 02:43:12;;;;;;;0.00;0.00;;;3.40;75.00;;;;;;5046611;28;20208;-35
2024/01/21 02:45:43;;;;;;;0.00;0.00;;;3.40;75.00;;;;;;5046092;28;20395;-35
2024/01/21 02:48:11;;;;;;;0.00;0.00;;;3.40;75.00;;;;;;5046617;28;20586;-35
2024/01/21 02:50:41;;;;;;;0.00;0.00;;;3.50;75.00;;;;;;5046490;28;20311;-35
2024/01/21 02:53:13;;;;;;;0.00;0.00;;;3.50;74.90;;;;;;5035261;28;20213;-34
2024/01/21 02:55:40;;;;;;;0.00;0.00;;;3.50;74.80;;;;;;5024618;28;20753;-34
2024/01/21 02:58:07;;;;;;;0.00;0.00;;;3.50;74.90;;;;;;5024531;28;20201;-35
2024/01/21 03:00:37;;;;;;;0.00;0.00;;;3.50;74.90;;;;;;5008936;28;20537;-34
2024/01/21 03:03:06;;;;;;;0.00;0.00;;;3.50;74.80;;;;;;5025323;28;20228;-37
2024/01/21 03:05:33;;;;;;;0.00;0.00;;;3.50;74.80;;;;;;5040718;28;20208;-35
2024/01/21 03:08:01;;;;;;;0.00;0.00;;;3.50;74.80;;;;;;5043941;28;20210;-34
2024/01/21 03:10:30;;;;;;;0.00;0.00;;;3.50;74.90;;;;;;5044781;28;20196;-34
2024/01/21 03:13:01;;;;;;;0.00;0.00;;;3.50;74.80;;;;;;5046259;28;20583;-35
2024/01/21 03:15:28;;;;;;;0.00;0.00;;;3.50;74.90;;;;;;5046197;28;20219;-34
2024/01/21 03:17:57;;;;;;;0.00;0.00;;;3.60;74.80;;;;;;5044851;28;20246;-35
2024/01/21 03:20:25;;;;;;;0.00;0.00;;;3.60;74.90;;;;;;5035498;28;20323;-36
2024/01/21 03:22:56;;;;;;;0.00;0.00;;;3.60;74.90;;;;;;5042519;28;20701;-35
2024/01/21 03:25:26;;;;;;;0.00;0.00;;;3.60;74.70;;;;;;5046279;28;20632;-35
2024/01/21 03:27:58;;;;;;;0.00;0.00;;;3.60;74.90;;;;;;5046129;28;20407;-34
2024/01/21 03:30:26;;;;;;;0.00;0.00;;;3.60;74.80;;;;;;5044992;28;20200;-35
2024/01/21 03:32:55;;;;;;;0.00;0.00;;;3.60;74.70;;;;;;5045661;28;20219;-35
2024/01/21 03:35:27;;;;;;;0.00;0.00;;;3.60;74.70;;;;;;5043970;28;20239;-34
2024/01/21 03:37:59;;;;;;;0.00;0.00;;;3.60;74.70;;;;;;5030609;28;20212;-35
2024/01/21 03:40:28;;;;;;;0.00;0.00;;;3.60;74.70;;;;;;5025944;28;20196;-34
2024/01/21 03:42:57;;;;;;;0.00;0.00;;;3.60;74.70;;;;;;5025779;28;20232;-35
2024/01/21 03:45:31;;;;;;;0.00;0.00;;;3.60;74.50;;;;;;5025725;28;20200;-35
2024/01/21 03:48:01;;;;;;;0.00;0.00;;;3.60;74.60;;;;;;5026782;28;20291;-35
2024/01/21 03:50:31;;;;;;;0.00;0.00;;;3.60;74.60;;;;;;5045727;28;20243;-35
2024/01/21 03:52:59;;;;;;;0.00;0.00;;;3.60;74.60;;;;;;5027487;28;20209;-35
2024/01/21 03:55:26;;;;;;;0.00;0.00;;;3.60;74.70;;;;;;5044656;28;20204;-34
2024/01/21 03:57:53;;;;;;;0.00;0.00;;;3.60;74.60;;;;;;5044012;28;20334;-34
2024/01/21 04:00:23;;;;;;;0.00;0.00;;;3.70;74.50;;;;;;5044295;28;20758;-34
2024/01/21 04:02:52;;;;;;;0.00;0.00;;;3.70;74.50;;;;;;5038971;28;21033;-35
2024/01/21 04:05:19;;;;;;;0.00;0.00;;;3.60;74.50;;;;;;5025731;28;20197;-34
2024/01/21 04:07:49;;;;;;;0.00;0.00;;;3.70;74.50;;;;;;5024081;28;20742;-34
2024/01/21 04:10:21;;;;;;;0.00;0.00;;;3.70;74.30;;;;;;5025279;28;20680;-34
2024/01/21 04:12:51;;;;;;;0.00;0.00;;;3.70;74.20;;;;;;5023462;28;20204;-35
2024/01/21 04:15:18;;;;;;;0.00;0.00;;;3.70;74.10;;;;;;5025297;28;20576;-34
2024/01/21 04:17:45;;;;;;;0.00;0.00;;;3.70;74.50;;;;;;5025924;28;20640;-35
2024/01/21 04:20:15;;;;;;;0.00;0.00;;;3.70;73.60;;;;;;5025376;28;20228;-36
2024/01/21 04:22:45;;;;;;;0.00;0.00;;;3.70;73.90;;;;;;5040446;28;20273;-35
2024/01/21 04:25:14;;;;;;;0.00;0.00;;;3.70;74.10;;;;;;5045367;28;20204;-35
2024/01/21 04:27:41;;;;;;;0.00;0.00;;;3.80;74.20;;;;;;5040400;28;20687;-35
2024/01/21 04:30:14;;;;;;;0.00;0.00;;;3.80;74.30;;;;;;5027032;28;20193;-36
2024/01/21 04:32:46;;;;;;;0.00;0.00;;;3.80;74.10;;;;;;5025865;28;20295;-35
2024/01/21 04:35:15;;;;;;;0.00;0.00;;;3.80;74.10;;;;;;5023674;28;20259;-35
2024/01/21 04:37:47;;;;;;;0.00;0.00;;;3.80;74.20;;;;;;5024820;28;20215;-35
2024/01/21 04:40:19;;;;;;;0.00;0.00;;;3.80;74.10;;;;;;5025274;28;20197;-34
2024/01/21 04:42:46;;;;;;;0.00;0.00;;;3.80;74.20;;;;;;5008264;28;20227;-34
2024/01/21 04:45:16;;;;;;;0.00;0.00;;;3.80;74.10;;;;;;5025694;28;20205;-34
2024/01/21 04:47:45;;;;;;;0.00;0.00;;;3.80;74.10;;;;;;5023739;28;20296;-35
2024/01/21 04:50:15;;;;;;;0.00;0.00;;;3.80;74.10;;;;;;5032017;28;20410;-34
2024/01/21 04:52:42;;;;;;;0.00;0.00;;;3.90;73.80;;;;;;5044556;28;20220;-34
2024/01/21 04:55:12;;;;;;;0.00;0.00;;;3.90;74.00;;;;;;5043651;28;20254;-34
2024/01/21 04:57:44;;;;;;;0.00;0.00;;;3.90;74.00;;;;;;5045085;28;20210;-35
2024/01/21 05:00:12;;;;;;;0.00;0.00;;;3.90;74.10;;;;;;5045305;28;20670;-34
2024/01/21 05:02:42;;;;;;;0.00;0.00;;;3.90;74.00;;;;;;5041382;28;20232;-34
2024/01/21 05:05:11;;;;;;;0.00;0.00;;;3.90;74.10;;;;;;5044677;28;20258;-36
2024/01/21 05:07:41;;;;;;;0.00;0.00;;;3.90;73.90;;;;;;5042887;28;20192;-34
2024/01/21 05:10:08;;;;;;;0.00;0.00;;;3.90;73.70;;;;;;5027006;28;20225;-34
2024/01/21 05:12:36;;;;;;;0.00;0.00;;;3.90;73.40;;;;;;5043314;28;20201;-34
2024/01/21 05:15:05;;;;;;;0.00;0.00;;;3.90;73.70;;;;;;5043757;28;20723;-34
2024/01/21 05:17:32;;;;;;;0.00;0.00;;;3.90;73.80;;;;;;5043498;28;20205;-36
2024/01/21 05:20:03;;;;;;;0.00;0.00;;;3.90;73.80;;;;;;5014026;28;20209;-36
2024/01/21 05:22:30;;;;;;;0.00;0.00;;;3.90;73.90;;;;;;5026984;28;20229;-38
2024/01/21 05:24:59;;;;;;;0.00;0.00;;;3.90;73.70;;;;;;5025134;28;20695;-36
2024/01/21 05:27:26;;;;;;;0.00;0.00;;;3.90;73.60;;;;;;5026600;28;20216;-36
2024/01/21 05:29:56;;;;;;;0.00;0.00;;;3.90;73.40;;;;;;5026673;28;20205;-35
2024/01/21 05:32:26;;;;;;;0.00;0.00;;;3.80;73.60;;;;;;5026867;28;20204;-34
2024/01/21 05:34:55;;;;;;;0.00;0.00;;;3.90;73.50;;;;;;5026612;28;20256;-34
2024/01/21 05:37:25;;;;;;;0.00;0.00;;;3.90;73.20;;;;;;5025623;28;20220;-35
2024/01/21 05:39:55;;;;;;;0.00;0.00;;;3.90;73.50;;;;;;5026332;28;20588;-34
2024/01/21 05:42:26;;;;;;;0.00;0.00;;;3.80;73.50;;;;;;5028678;28;20220;-35
2024/01/21 05:44:56;;;;;;;0.00;0.00;;;3.90;73.60;;;;;;5050316;28;20262;-35
2024/01/21 05:47:23;;;;;;;0.00;0.00;;;3.80;73.50;;;;;;5043566;28;20291;-34
2024/01/21 05:49:50;;;;;;;0.00;0.00;;;3.80;73.50;;;;;;5026382;28;20209;-35
2024/01/21 05:52:22;;;;;;;0.00;0.00;;;3.80;73.50;;;;;;5028426;28;20259;-34
2024/01/21 05:54:51;;;;;;;0.00;0.00;;;3.80;73.70;;;;;;5045786;28;20290;-34
2024/01/21 05:57:19;;;;;;;0.00;0.00;;;3.80;73.40;;;;;;5048376;28;20227;-34
2024/01/21 05:59:46;;;;;;;0.00;0.00;;;3.80;73.60;;;;;;5036366;28;20514;-34
2024/01/21 06:02:14;;;;;;;0.00;0.00;;;3.80;73.30;;;;;;5028133;28;20221;-34
2024/01/21 06:04:41;;;;;;;0.00;0.00;;;3.80;73.40;;;;;;5026143;28;20201;-34
2024/01/21 06:07:11;;;;;;;0.00;0.00;;;3.80;72.70;;;;;;5026457;28;20200;-34
2024/01/21 06:09:38;;;;;;;0.00;0.00;;;3.80;73.30;;;;;;5027999;28;20213;-34
2024/01/21 06:12:10;;;;;;;0.00;0.00;;;3.80;73.10;;;;;;5027780;28;20211;-35
2024/01/21 06:14:37;;;;;;;0.00;0.00;;;3.80;73.00;;;;;;5027756;28;20295;-36
2024/01/21 06:17:09;;;;;;;0.00;0.00;;;3.80;73.20;;;;;;5028229;28;20208;-36
2024/01/21 06:19:38;;;;;;;0.00;0.00;;;3.70;73.30;;;;;;5028423;28;20209;-36
2024/01/21 06:22:10;;;;;;;0.00;0.00;;;3.70;72.80;;;;;;5027973;28;20267;-35
2024/01/21 06:24:40;;;;;;;0.00;0.00;;;3.70;73.00;;;;;;5027203;28;20213;-34
2024/01/21 06:27:07;;;;;;;0.00;0.00;;;3.70;73.00;;;;;;5017701;28;20200;-35
2024/01/21 06:29:37;;;;;;;0.00;0.00;;;3.70;73.00;;;;;;5047455;28;20622;-34
2024/01/21 06:32:04;;;;;;;0.00;0.00;;;3.70;73.00;;;;;;5047411;28;20200;-34
2024/01/21 06:34:34;;;;;;;0.00;0.00;;;3.70;73.20;;;;;;5045468;28;20263;-34
2024/01/21 06:37:01;;;;;;;0.00;0.00;;;3.70;72.70;;;;;;5047158;28;20207;-34
2024/01/21 06:39:30;;;;;;;0.00;0.00;;;3.70;73.20;;;;;;5045362;28;20278;-34
2024/01/21 06:41:59;;;;;;;0.00;0.00;;;3.70;73.20;;;;;;5032654;28;20216;-34
2024/01/21 06:44:27;;;;;;;0.00;0.00;;;3.80;73.00;;;;;;5027253;28;20205;-34
2024/01/21 06:46:56;;;;;;;0.00;0.00;;;3.80;73.10;;;;;;5009051;28;20217;-34
2024/01/21 06:49:26;;;;;;;0.00;0.00;;;3.80;73.10;;;;;;5027225;28;20258;-34
2024/01/21 06:51:56;;;;;;;0.00;0.00;;;3.80;73.20;;;;;;5027043;28;20529;-34
2024/01/21 06:54:25;;;;;;;0.00;0.00;;;3.80;73.00;;;;;;5024531;28;20462;-34
2024/01/21 06:56:57;;;;;;;0.00;0.00;;;3.80;73.10;;;;;;5027983;28;20220;-34
2024/01/21 06:59:29;;;;;;;0.00;0.00;;;3.80;72.80;;;;;;5046719;28;20188;-34
2024/01/21 07:02:00;;;;;;;0.00;0.00;;;3.80;72.50;;;;;;5031789;28;20296;-34
2024/01/21 07:04:28;;;;;;;0.00;0.00;;;3.80;72.90;;;;;;5026808;28;20296;-35
2024/01/21 07:06:55;;;;;;;0.00;0.00;;;3.80;72.90;;;;;;5027335;28;20290;-36
2024/01/21 07:09:28;;;;;;;0.00;0.00;;;3.90;73.00;;;;;;5026292;28;20925;-35
2024/01/21 07:11:56;;;;;;;0.00;0.00;;;3.90;73.10;;;;;;5028278;28;20215;-35
2024/01/21 07:14:25;;;;;;;0.00;0.00;;;3.90;72.90;;;;;;5024410;28;20205;-35
2024/01/21 07:16:53;;;;;;;0.00;0.00;;;3.90;73.10;;;;;;5024946;28;20733;-34
2024/01/21 07:19:20;;;;;;;0.00;0.00;;;3.90;72.80;;;;;;5028225;28;20567;-34
2024/01/21 07:21:49;;;;;;;0.00;0.00;;;3.90;73.00;;;;;;5018697;28;20578;-35
2024/01/21 07:24:22;;;;;;;0.00;0.00;;;4.00;73.00;;;;;;5045907;28;20243;-35
2024/01/21 07:26:51;;;;;;;0.00;0.00;;;4.00;72.70;;;;;;5047863;28;20201;-37
2024/01/21 07:29:21;;;;;;;0.00;0.00;;;4.00;71.80;;;;;;5046909;28;20285;-36
2024/01/21 07:31:50;;;;;;;0.00;0.00;;;4.00;72.40;;;;;;5048184;28;20203;-38
2024/01/21 07:34:22;;;;;;;0.00;0.00;;;4.00;72.30;;;;;;5046865;28;20228;-35
2024/01/21 07:36:52;;;;;;;0.00;0.00;;;4.00;72.00;;;;;;5046262;28;20189;-34
2024/01/21 07:39:24;;;;;;;0.00;0.00;;;4.00;71.70;;;;;;5036937;28;20232;-35
2024/01/21 07:41:54;;;;;;;0.00;0.00;;;4.00;72.20;;;;;;5029179;28;20212;-35
2024/01/21 07:44:22;;;;;;;0.00;0.00;;;4.00;72.00;;;;;;5044176;28;20332;-35
2024/01/21 07:46:51;;;;;;;0.00;0.00;;;4.00;71.70;;;;;;5044110;28;20215;-34
2024/01/21 07:49:18;;;;;;;0.00;0.00;;;4.00;72.10;;;;;;5045557;28;20281;-34
2024/01/21 07:51:48;;;;;;;0.00;0.00;;;4.00;72.40;;;;;;5040194;28;20284;-34
2024/01/21 07:54:18;;;;;;;0.00;0.00;;;4.00;71.60;;;;;;5023911;28;20311;-36
2024/01/21 07:56:53;;;;;;;0.00;0.00;;;4.00;71.80;;;;;;5024605;28;20614;-35
2024/01/21 07:59:20;;;;;;;0.00;0.00;;;4.00;71.90;;;;;;5045944;28;20541;-35
2024/01/21 08:01:49;;;;;;;0.00;0.00;;;4.00;72.00;;;;;;5045811;28;20200;-35
2024/01/21 08:04:17;;;;;;;0.00;0.00;;;4.00;72.10;;;;;;5043825;28;20710;-35
2024/01/21 08:06:44;;;;;;;0.00;0.00;;;4.00;72.40;;;;;;5027044;28;20192;-35
2024/01/21 08:09:15;;;;;;;0.00;0.00;;;4.00;72.70;;;;;;5034693;28;20307;-36
2024/01/21 08:11:49;;;;;;;0.00;0.00;;;4.00;72.20;;;;;;5024187;28;20217;-35
2024/01/21 08:14:16;;;;;;;0.00;0.00;;;4.10;72.60;;;;;;5023897;28;20420;-35
2024/01/21 08:16:48;;;;;;;0.00;0.00;;;4.10;72.80;;;;;;5007712;28;20208;-35
2024/01/21 08:19:17;;;;;;;0.00;0.00;;;4.10;72.60;;;;;;5023933;28;20742;-35
2024/01/21 08:21:44;;;;;;;0.00;0.00;;;4.10;72.80;;;;;;5024875;28;20213;-35
2024/01/21 08:24:14;;;;;;;0.00;0.00;;;4.10;72.80;;;;;;5023210;28;20228;-36
2024/01/21 08:26:42;;;;;;;0.00;0.00;;;4.10;72.70;;;;;;5037786;28;20212;-36
2024/01/21 08:29:11;;;;;;;0.00;0.00;;;4.20;72.10;;;;;;5044945;28;20200;-35
2024/01/21 08:31:43;;;;;;;0.00;0.00;;;4.20;72.40;;;;;;5027206;28;20678;-35
2024/01/21 08:34:16;;;;;;;0.00;0.00;;;4.30;72.60;;;;;;5045335;28;20260;-35
2024/01/21 08:36:43;;;;;;;0.00;0.00;;;4.30;72.80;;;;;;5044714;28;20215;-35
2024/01/21 08:39:12;;;;;;;0.00;0.00;;;4.30;72.80;;;;;;5029740;28;20259;-36
2024/01/21 08:41:44;;;;;;;0.00;0.00;;;4.40;72.70;;;;;;5024891;28;20284;-35
2024/01/21 08:44:15;;;;;;;0.00;0.00;;;4.40;73.00;;;;;;5024008;28;20358;-35
2024/01/21 08:46:44;;;;;;;0.00;0.00;;;4.50;73.00;;;;;;5025289;28;20557;-36
2024/01/21 08:49:12;;;;;;;0.00;0.00;;;4.50;73.00;;;;;;5025473;28;20686;-35
2024/01/21 08:51:41;;;;;;;0.00;0.00;;;4.60;73.10;;;;;;5024993;28;20671;-35
2024/01/21 08:54:11;;;;;;;0.00;0.00;;;4.60;73.10;;;;;;5031283;28;20735;-34
2024/01/21 08:56:38;;;;;;;0.00;0.00;;;4.60;73.20;;;;;;5043136;28;20208;-36
2024/01/21 08:59:07;;;;;;;0.00;0.00;;;4.60;73.30;;;;;;5044578;28;20210;-36
2024/01/21 09:01:37;;;;;;;0.00;0.00;;;4.70;73.10;;;;;;5043185;28;20216;-24
2024/01/21 09:04:10;;;;;;;0.00;0.00;;;4.70;73.10;;;;;;5043466;28;20224;-24
2024/01/21 09:06:41;;;;;;;0.00;0.00;;;4.70;72.90;;;;;;5044381;28;20614;-24
2024/01/21 09:09:14;;;;;;;0.00;0.00;;;4.80;72.90;;;;;;5044922;28;20254;-24
2024/01/21 09:11:48;;;;;;;0.00;0.00;;;4.80;73.00;;;;;;5044666;28;20231;-24
2024/01/21 09:14:16;;;;;;;0.00;0.00;;;4.80;73.20;;;;;;5027540;28;20220;-24
2024/01/21 09:16:46;;;;;;;0.00;0.00;;;4.80;73.20;;;;;;5038810;28;20307;-24
2024/01/21 09:19:16;;;;;;;0.00;0.00;;;4.90;73.20;;;;;;5011113;28;20224;-24
2024/01/21 09:21:44;;;;;;;0.00;0.00;;;4.90;72.90;;;;;;5026591;28;20294;-24
2024/01/21 09:24:14;;;;;;;0.00;0.00;;;4.90;73.10;;;;;;5026178;28;20456;-24
2024/01/21 09:26:46;;;;;;;0.00;0.00;;;5.00;73.40;;;;;;5028259;28;20501;-24
2024/01/21 09:29:16;;;;;;;0.00;0.00;;;5.00;73.20;;;;;;5028904;28;20220;-24
2024/01/21 09:31:55;;;;;;;0.00;0.00;;;5.00;73.00;;;;;;5028506;28;20213;-24
2024/01/21 09:34:22;;;;;;;0.00;0.00;;;5.00;73.50;;;;;;5026401;28;20331;-24
2024/01/21 09:36:52;;;;;;;0.00;0.00;;;5.10;73.40;;;;;;5028167;28;20274;-24
2024/01/21 09:39:22;;;;;;;0.00;0.00;;;5.10;73.40;;;;;;5026109;28;20718;-24
2024/01/21 09:41:50;;;;;;;0.00;0.00;;;5.10;73.10;;;;;;5028313;28;20266;-24
2024/01/21 09:44:28;;;;;;;0.00;0.00;;;5.20;73.40;;;;;;5027819;28;20220;-24
2024/01/21 09:46:59;;;;;;;0.00;0.00;;;5.20;73.50;;;;;;5026676;28;20205;-24
2024/01/21 09:49:31;;;;;;;0.00;0.00;;;5.20;73.00;;;;;;5026733;28;20762;-24
2024/01/21 09:52:02;;;;;;;0.00;0.00;;;5.30;73.30;;;;;;5028236;28;20709;-24
2024/01/21 09:54:32;;;;;;;0.00;0.00;;;5.30;73.40;;;;;;5026007;28;20287;-24
2024/01/21 09:57:06;;;;;;;0.00;0.00;;;5.30;73.10;;;;;;5028698;28;20579;-24
2024/01/21 09:59:33;;;;;;;0.00;0.00;;;5.30;73.30;;;;;;5027860;28;20207;-24
2024/01/21 10:02:03;;;;;;;0.00;0.00;;;5.40;73.40;;;;;;5026670;28;20205;-24
2024/01/21 10:04:33;;;;;;;0.00;0.00;;;5.40;73.40;;;;;;5027594;28;20225;-24
2024/01/21 10:07:02;;;;;;;0.00;0.00;;;5.40;73.30;;;;;;5027703;28;20213;-25
2024/01/21 10:09:30;;;;;;;0.00;0.00;;;5.40;72.90;;;;;;5028021;28;20287;-24
2024/01/21 10:12:02;;;;;;;0.00;0.00;;;5.50;73.30;;;;;;5010524;28;20193;-25
2024/01/21 10:14:35;;;;;;;0.00;0.00;;;5.50;72.90;;;;;;5009366;28;20212;-24
2024/01/21 10:17:02;;;;;;;0.00;0.00;;;5.50;73.10;;;;;;5027025;28;20578;-24
2024/01/21 10:19:35;;;;;;;0.00;0.00;;;5.60;73.40;;;;;;5008999;28;20222;-24
2024/01/21 10:22:11;;;;;;;0.00;0.00;;;5.60;73.30;;;;;;5026862;28;20671;-24
2024/01/21 10:24:39;;;;;;;0.00;0.00;;;5.60;73.40;;;;;;5030731;28;20221;-25
2024/01/21 10:27:10;;;;;;;0.00;0.00;;;5.70;73.20;;;;;;5026405;28;20204;-25
2024/01/21 10:29:45;;;;;;;0.00;0.00;;;5.70;73.50;;;;;;5026314;28;20197;-25
2024/01/21 10:32:14;;;;;;;0.00;0.00;;;5.70;73.30;;;;;;5033188;28;20200;-24
2024/01/21 10:34:53;;;;;;;0.00;0.00;;;5.80;73.30;;;;;;5045003;28;20235;-25
2024/01/21 10:37:24;;;;;;;0.00;0.00;;;5.80;73.50;;;;;;5045562;28;20833;-25
2024/01/21 10:39:57;;;;;;;0.00;0.00;;;5.80;73.00;;;;;;5044992;28;20283;-25
2024/01/21 10:42:28;;;;;;;0.00;0.00;;;5.90;73.50;;;;;;5036722;28;20204;-25
2024/01/21 10:44:58;;;;;;;0.00;0.00;;;5.90;73.40;;;;;;5025236;28;20229;-25
2024/01/21 10:47:29;;;;;;;0.00;0.00;;;6.00;74.30;;;;;;5025406;28;20185;-25
2024/01/21 10:50:00;;;;;;;0.00;0.00;;;6.00;73.50;;;;;;5031209;28;20286;-24
2024/01/21 10:52:27;;;;;;;0.00;0.00;;;6.00;74.00;;;;;;5045198;28;20208;-25
2024/01/21 10:54:58;;;;;;;0.00;0.00;;;6.10;73.40;;;;;;5045188;28;20211;-25
2024/01/21 10:57:26;;;;;;;0.00;0.00;;;6.10;73.20;;;;;;5046810;28;20200;-25
2024/01/21 10:59:58;;;;;;;0.00;0.00;;;6.20;73.20;;;;;;5030594;28;20212;-25
2024/01/21 11:02:25;;;;;;;0.00;0.00;;;6.20;73.40;;;;;;5026741;28;20217;-25
2024/01/21 11:04:57;;;;;;;0.00;0.00;;;6.20;73.40;;;;;;5026561;28;20327;-25
2024/01/21 11:07:25;;;;;;;0.00;0.00;;;6.30;73.40;;;;;;5025169;28;20479;-25
2024/01/21 11:09:54;;;;;;;0.00;0.00;;;6.30;73.70;;;;;;5024963;28;20209;-25
2024/01/21 11:12:24;;;;;;;0.00;0.00;;;6.30;73.00;;;;;;5028146;28;20200;-25
2024/01/21 11:14:54;;;;;;;0.00;0.00;;;6.30;73.50;;;;;;5027780;28;20350;-25
2024/01/21 11:17:26;;;;;;;0.00;0.00;;;6.30;73.60;;;;;;5036209;28;20216;-25
2024/01/21 11:19:59;;;;;;;0.00;0.00;;;6.40;73.70;;;;;;5043988;28;20269;-25
2024/01/21 11:22:29;;;;;;;0.00;0.00;;;6.40;73.50;;;;;;5030676;28;20278;-25
2024/01/21 11:25:01;;;;;;;0.00;0.00;;;6.40;73.70;;;;;;5025377;28;20220;-26
2024/01/21 11:27:33;;;;;;;0.00;0.00;;;6.50;73.90;;;;;;5026181;28;20217;-25
2024/01/21 11:30:05;;;;;;;0.00;0.00;;;6.50;73.70;;;;;;5027317;28;20224;-25
2024/01/21 11:32:43;;;;;;;0.00;0.00;;;6.50;73.60;;;;;;5041519;28;20209;-25
2024/01/21 11:35:17;;;;;;;0.00;0.00;;;6.50;73.80;;;;;;5025233;28;20738;-25
2024/01/21 11:37:52;;;;;;;0.00;0.00;;;6.60;74.10;;;;;;5023886;28;20193;-24
2024/01/21 11:40:25;;;;;;;0.00;0.00;;;6.60;73.80;;;;;;5024458;28;20193;-24
2024/01/21 11:42:53;;;;;;;0.00;0.00;;;6.60;73.80;;;;;;5024324;28;20583;-24
2024/01/21 11:45:23;;;;;;;0.00;0.00;;;6.60;73.60;;;;;;5026031;28;20256;-24
2024/01/21 11:47:52;;;;;;;0.00;0.00;;;6.70;73.70;;;;;;5029768;28;20192;-24
2024/01/21 11:50:20;;;;;;;0.00;0.00;;;6.70;73.90;;;;;;5043245;28;20690;-24
2024/01/21 11:52:51;;;;;;;0.00;0.00;;;6.70;74.00;;;;;;5044918;28;20311;-25
2024/01/21 11:55:23;;;;;;;0.00;0.00;;;6.80;74.00;;;;;;5045286;28;20207;-25
2024/01/21 11:57:50;;;;;;;0.00;0.00;;;6.80;73.90;;;;;;5045425;28;20208;-25
2024/01/21 12:00:20;;;;;;;0.00;0.00;;;6.80;74.00;;;;;;5045405;28;20204;-25
2024/01/21 12:02:53;;;;;;;0.00;0.00;;;6.90;73.90;;;;;;5045452;28;20266;-25
2024/01/21 12:05:20;;;;;;;0.00;0.00;;;6.90;74.00;;;;;;5046156;28;20297;-25
2024/01/21 12:07:47;;;;;;;0.00;0.00;;;6.90;73.80;;;;;;5045771;28;20215;-25
2024/01/21 12:10:15;;;;;;;0.00;0.00;;;6.90;73.90;;;;;;5044086;28;20208;-25
2024/01/21 12:12:43;;;;;;;0.00;0.00;;;6.90;74.00;;;;;;5045005;28;20204;-25
2024/01/21 12:15:12;;;;;;;0.00;0.00;;;7.00;73.90;;;;;;5028310;28;20252;-25
2024/01/21 12:17:54;;;;;;;0.00;0.00;;;7.00;74.10;;;;;;5025061;28;20304;-25
2024/01/21 12:20:24;;;;;;;0.00;0.00;;;7.00;74.00;;;;;;5024749;28;20523;-25
2024/01/21 12:22:52;;;;;;;0.00;0.00;;;7.00;73.90;;;;;;5022562;28;20212;-25
2024/01/21 12:25:20;;;;;;;0.00;0.00;;;7.10;74.40;;;;;;5040841;28;20232;-25
2024/01/21 12:27:54;;;;;;;0.00;0.00;;;7.10;74.10;;;;;;5023107;28;20701;-25
2024/01/21 12:30:24;;;;;;;0.00;0.00;;;7.10;74.80;;;;;;5024984;28;20592;-24
2024/01/21 12:32:54;;;;;;;0.00;0.00;;;7.10;74.00;;;;;;5025048;28;20196;-25
2024/01/21 12:35:26;;;;;;;0.00;0.00;;;7.10;74.00;;;;;;5007734;28;20279;-24
2024/01/21 12:37:56;;;;;;;0.00;0.00;;;7.10;74.10;;;;;;5024658;28;20300;-24
2024/01/21 12:40:23;;;;;;;0.00;0.00;;;7.20;74.00;;;;;;5023902;28;20213;-24
2024/01/21 12:42:53;;;;;;;0.00;0.00;;;7.20;74.00;;;;;;5025245;28;20232;-24
2024/01/21 12:45:24;;;;;;;0.00;0.00;;;7.20;74.10;;;;;;5041248;28;20613;-24
2024/01/21 12:47:54;;;;;;;0.00;0.00;;;7.20;74.00;;;;;;5044857;28;20196;-24
2024/01/21 12:50:23;;;;;;;0.00;0.00;;;7.20;73.70;;;;;;5044793;28;20298;-24
2024/01/21 12:52:51;;;;;;;0.00;0.00;;;7.20;73.90;;;;;;5047208;28;20208;-24
2024/01/21 12:55:18;;;;;;;0.00;0.00;;;7.20;73.90;;;;;;5047354;28;20220;-24
2024/01/21 12:57:46;;;;;;;0.00;0.00;;;7.20;74.00;;;;;;5043484;28;20223;-24
2024/01/21 13:00:16;;;;;;;0.00;0.00;;;7.20;73.80;;;;;;5028804;28;20205;-24
2024/01/21 13:02:48;;;;;;;0.00;0.00;;;7.20;73.90;;;;;;5028699;28;20204;-24
2024/01/21 13:05:16;;;;;;;0.00;0.00;;;7.30;74.20;;;;;;5028681;28;20219;-24
2024/01/21 13:07:43;;;;;;;0.00;0.00;;;7.30;73.90;;;;;;5048140;28;20654;-24
2024/01/21 13:10:11;;;;;;;0.00;0.00;;;7.30;74.00;;;;;;5046561;28;20216;-24